Etusivu
METAR-TAF:

METAR-TAF

Lentoasemat :

Koror, Babelthuap Island, Palau

Leveyspiiri: 07-22N, Pituuspiiri: 134-32E, korkeus merenpinnasta: 54 m

Tämänhetkinen sää

Tämä raportti tehtiin 49 minuuttia sitten, kello 14.50 UTC
Tuuli 4 kn lännestä/lounaasta
Lämpötila 27°C
Kosteus 84%
Ilmanpaine 1010 hPa
Näkyvyys: 24.1 km
Muutamia pilviä 1600 ft:n korkeudessa
Hajonneita pilviä 12000 ft:n korkeudessa
Hajonneita pilviä 30000 ft:n korkeudessa

METAR: PTRO 211450Z 24004KT 15SM FEW016 BKN120 BKN300 27/24 A2983

Aika: 00:39 (15:39 UTC)

Sääennuste

Tämä raportti tehtiin 4 tuntia ja 14 minuuttia sitten, kello 11.25 UTC
Ennuste voimassa 21. päivästä klo 12 UTC - 22. päivään klo 12 UTC
Tuuli 5 kn etelästä/lounaasta
Näkyvyys: 10 km
Hajanaisia pilviä 1600 ft:n korkeudessa
Hajonneita pilviä 11000 ft:n korkeudessa
Pilvistä 30000 ft:n korkeudessa
sadekuuroja näköpiirissä

TAF: PTRO 211125Z 2112/2212 20005KT P6SM VCSH SCT016 BKN110 OVC300

Säähavainnot ja -ennusteet yli 4000 lentoasemalta (METAR- ja TAF-raportit).

Käytössä olevat sääasemat on merkitty karttaan keltaisilla ja punaisilla pisteillä.

Aseta hiiri pisteen päälle nähdäksesi sääaseman nimen.

Klikkaa sitten nähdäksesi säähavainnot ja -ennusteet.

Kartan vaihtaminen: klikkaa mustalla rastilla varustettuja vihreitä pisteitä, niin voit zoomata sisään; viivalla varustettua vihreää pistettä, niin voit zoomata ulos tai vihreitä nuolia, niin pääset viereisille kartoille.


METAR-TAF: